QTR102 EBBR-LFBO
Flight info
| Callsign | QTR102 |
|---|---|
| Flight time | 1h 27m |
| Altitude | 35000 |
| Route | CIV N872 LESDO DCT KOVIN DCT DUCRA UM728 RESMI UN857 DISAK/N0460F350 DCT DIRMO DCT GUERE DCT EVPOK DCT NARAK |
| Aircraft | A306/H-SDE3FGHIRWY/LB1 |
Departure
| Time | 2026-05-05 05:43 |
|---|---|
| Airport | Brussels Airport (EBBR) |
Arrival
| Time | 2026-05-05 07:10 |
|---|---|
| Airport | Toulouse-Blagnac Airport (LFBO) |
| Time | Latitude | Longitude | Altitude | Speed | Heading |
|---|---|---|---|---|---|
| 2026-05-05 05:21 | 50.90329 | 4.45892 | 198 ft | 0 kts | 335° |
| 2026-05-05 05:27 | 50.90328 | 4.45892 | 198 ft | 0 kts | 335° |
| 2026-05-05 05:27 | 50.90315 | 4.45902 | 198 ft | 2 kts | 335° |
| 2026-05-05 05:27 | 50.90288 | 4.45922 | 198 ft | 2 kts | 342° |
| 2026-05-05 05:28 | 50.90273 | 4.45923 | 198 ft | 2 kts | 14° |
| 2026-05-05 05:28 | 50.90260 | 4.45912 | 198 ft | 2 kts | 41° |
| 2026-05-05 05:28 | 50.90252 | 4.45898 | 198 ft | 0 kts | 64° |
| 2026-05-05 05:28 | 50.90250 | 4.45891 | 198 ft | 0 kts | 65° |
| 2026-05-05 05:32 | 50.90251 | 4.45895 | 198 ft | 1 kts | 64° |
| 2026-05-05 05:33 | 50.90268 | 4.45947 | 198 ft | 8 kts | 63° |
| 2026-05-05 05:33 | 50.90297 | 4.46072 | 198 ft | 14 kts | 71° |
| 2026-05-05 05:33 | 50.90331 | 4.46245 | 198 ft | 18 kts | 73° |
| 2026-05-05 05:33 | 50.90356 | 4.46458 | 198 ft | 21 kts | 92° |
| 2026-05-05 05:34 | 50.90303 | 4.46685 | 198 ft | 23 kts | 116° |
| 2026-05-05 05:34 | 50.90228 | 4.46931 | 198 ft | 25 kts | 115° |
| 2026-05-05 05:34 | 50.90192 | 4.47211 | 198 ft | 27 kts | 71° |
| 2026-05-05 05:34 | 50.90272 | 4.47497 | 198 ft | 29 kts | 67° |
| 2026-05-05 05:35 | 50.90360 | 4.47802 | 198 ft | 31 kts | 65° |
| 2026-05-05 05:35 | 50.90453 | 4.48127 | 198 ft | 33 kts | 65° |
| 2026-05-05 05:35 | 50.90551 | 4.48468 | 198 ft | 34 kts | 65° |
| 2026-05-05 05:35 | 50.90655 | 4.48829 | 198 ft | 36 kts | 64° |
| 2026-05-05 05:36 | 50.90762 | 4.49199 | 198 ft | 38 kts | 64° |
| 2026-05-05 05:36 | 50.90877 | 4.49586 | 198 ft | 39 kts | 65° |
| 2026-05-05 05:36 | 50.90967 | 4.49828 | 198 ft | 0 kts | 47° |
| 2026-05-05 05:37 | 50.90969 | 4.49832 | 198 ft | 1 kts | 47° |
| 2026-05-05 05:37 | 50.90989 | 4.49864 | 198 ft | 6 kts | 44° |
| 2026-05-05 05:38 | 50.91038 | 4.49921 | 198 ft | 10 kts | 24° |
| 2026-05-05 05:38 | 50.91122 | 4.49923 | 198 ft | 14 kts | 312° |
| 2026-05-05 05:38 | 50.91121 | 4.49819 | 198 ft | 0 kts | 243° |
| 2026-05-05 05:42 | 50.91105 | 4.49769 | 198 ft | 19 kts | 244° |
| 2026-05-05 05:42 | 50.90982 | 4.49336 | 198 ft | 69 kts | 245° |
| 2026-05-05 05:42 | 50.90702 | 4.48370 | 198 ft | 123 kts | 246° |
| 2026-05-05 05:42 | 50.90268 | 4.46863 | 199 ft | 175 kts | 247° |
| 2026-05-05 05:43 | 50.89724 | 4.44983 | 585 ft | 195 kts | 246° |
| 2026-05-05 05:43 | 50.89199 | 4.42949 | 996 ft | 202 kts | 255° |
| 2026-05-05 05:43 | 50.89043 | 4.40731 | 1466 ft | 210 kts | 279° |
| 2026-05-05 05:43 | 50.89421 | 4.38506 | 2021 ft | 223 kts | 293° |
| 2026-05-05 05:44 | 50.90236 | 4.36150 | 2202 ft | 254 kts | 317° |
| 2026-05-05 05:44 | 50.91731 | 4.34839 | 3145 ft | 253 kts | 339° |
| 2026-05-05 05:44 | 50.93148 | 4.33162 | 3919 ft | 263 kts | 305° |
| 2026-05-05 05:44 | 50.93722 | 4.30423 | 4764 ft | 270 kts | 271° |
| 2026-05-05 05:45 | 50.93234 | 4.27571 | 5569 ft | 277 kts | 237° |
| 2026-05-05 05:45 | 50.91871 | 4.25412 | 6371 ft | 280 kts | 217° |
| 2026-05-05 05:45 | 50.90296 | 4.23605 | 7135 ft | 285 kts | 215° |
| 2026-05-05 05:45 | 50.88708 | 4.21763 | 7924 ft | 286 kts | 217° |
| 2026-05-05 05:46 | 50.87120 | 4.19854 | 8611 ft | 288 kts | 217° |
| 2026-05-05 05:46 | 50.85537 | 4.17917 | 9261 ft | 290 kts | 218° |
| 2026-05-05 05:46 | 50.83934 | 4.15937 | 9878 ft | 293 kts | 218° |
| 2026-05-05 05:46 | 50.82316 | 4.13934 | 10221 ft | 307 kts | 218° |
| 2026-05-05 05:47 | 50.80563 | 4.11764 | 10368 ft | 327 kts | 218° |
| 2026-05-05 05:47 | 50.78706 | 4.09468 | 10510 ft | 347 kts | 218° |
| 2026-05-05 05:47 | 50.76764 | 4.07068 | 10653 ft | 367 kts | 218° |
| 2026-05-05 05:47 | 50.74703 | 4.04524 | 10947 ft | 381 kts | 218° |
| 2026-05-05 05:48 | 50.72615 | 4.01947 | 11500 ft | 386 kts | 218° |
| 2026-05-05 05:48 | 50.70468 | 3.99302 | 12101 ft | 390 kts | 218° |
| 2026-05-05 05:48 | 50.68346 | 3.96689 | 12692 ft | 392 kts | 218° |
| 2026-05-05 05:48 | 50.66193 | 3.94041 | 13241 ft | 395 kts | 218° |
| 2026-05-05 05:49 | 50.64030 | 3.91384 | 13755 ft | 398 kts | 218° |
| 2026-05-05 05:49 | 50.61841 | 3.88698 | 14264 ft | 400 kts | 218° |
| 2026-05-05 05:49 | 50.59644 | 3.86006 | 14769 ft | 403 kts | 218° |
| 2026-05-05 05:49 | 50.57344 | 3.83403 | 15250 ft | 405 kts | 212° |
| 2026-05-05 05:50 | 50.54833 | 3.81366 | 15715 ft | 408 kts | 205° |
| 2026-05-05 05:50 | 50.52220 | 3.79594 | 16178 ft | 410 kts | 203° |
| 2026-05-05 05:50 | 50.49580 | 3.77872 | 16607 ft | 412 kts | 203° |
| 2026-05-05 05:50 | 50.46958 | 3.76137 | 17024 ft | 413 kts | 204° |
| 2026-05-05 05:51 | 50.44305 | 3.74350 | 17440 ft | 415 kts | 204° |
| 2026-05-05 05:51 | 50.41626 | 3.72529 | 17851 ft | 417 kts | 204° |
| 2026-05-05 05:51 | 50.38956 | 3.70711 | 18244 ft | 418 kts | 204° |
| 2026-05-05 05:51 | 50.36290 | 3.68897 | 18620 ft | 419 kts | 204° |
| 2026-05-05 05:52 | 50.33597 | 3.67074 | 18968 ft | 420 kts | 204° |
| 2026-05-05 05:52 | 50.30899 | 3.65255 | 19306 ft | 422 kts | 204° |
| 2026-05-05 05:52 | 50.28203 | 3.63437 | 19626 ft | 423 kts | 204° |
| 2026-05-05 05:52 | 50.25483 | 3.61603 | 19932 ft | 425 kts | 204° |
| 2026-05-05 05:53 | 50.22752 | 3.59762 | 20233 ft | 427 kts | 204° |
| 2026-05-05 05:53 | 50.20019 | 3.57921 | 20528 ft | 429 kts | 204° |
| 2026-05-05 05:53 | 50.17279 | 3.56082 | 20813 ft | 430 kts | 204° |
| 2026-05-05 05:53 | 50.14531 | 3.54240 | 21092 ft | 431 kts | 204° |
| 2026-05-05 05:54 | 50.11779 | 3.52395 | 21348 ft | 432 kts | 204° |
| 2026-05-05 05:54 | 50.08993 | 3.50528 | 21586 ft | 434 kts | 204° |
| 2026-05-05 05:54 | 50.06226 | 3.48676 | 21809 ft | 436 kts | 204° |
| 2026-05-05 05:54 | 50.03415 | 3.46795 | 22032 ft | 437 kts | 204° |
| 2026-05-05 05:55 | 50.00639 | 3.44942 | 22252 ft | 439 kts | 204° |
| 2026-05-05 05:55 | 49.97799 | 3.43048 | 22473 ft | 440 kts | 204° |
| 2026-05-05 05:55 | 49.94990 | 3.41177 | 22688 ft | 441 kts | 204° |
| 2026-05-05 05:55 | 49.92156 | 3.39291 | 22904 ft | 442 kts | 204° |
| 2026-05-05 05:56 | 49.89307 | 3.37398 | 23116 ft | 443 kts | 204° |
| 2026-05-05 05:56 | 49.86491 | 3.35529 | 23324 ft | 444 kts | 204° |
| 2026-05-05 05:56 | 49.83624 | 3.33631 | 23559 ft | 445 kts | 204° |
| 2026-05-05 05:56 | 49.80790 | 3.31761 | 23778 ft | 446 kts | 203° |
| 2026-05-05 05:57 | 49.77895 | 3.29860 | 23990 ft | 446 kts | 203° |
| 2026-05-05 05:57 | 49.75014 | 3.27965 | 24173 ft | 447 kts | 204° |
| 2026-05-05 05:57 | 49.72172 | 3.26092 | 24340 ft | 448 kts | 204° |
| 2026-05-05 05:57 | 49.69279 | 3.24185 | 24511 ft | 449 kts | 204° |
| 2026-05-05 05:58 | 49.66405 | 3.22293 | 24683 ft | 450 kts | 204° |
| 2026-05-05 05:58 | 49.63506 | 3.20388 | 24856 ft | 450 kts | 203° |
| 2026-05-05 05:58 | 49.60632 | 3.18501 | 25042 ft | 451 kts | 203° |
| 2026-05-05 05:58 | 49.57750 | 3.16613 | 25240 ft | 451 kts | 203° |
| 2026-05-05 05:59 | 49.54858 | 3.14719 | 25437 ft | 451 kts | 203° |
| 2026-05-05 05:59 | 49.51950 | 3.12819 | 25628 ft | 451 kts | 203° |
| 2026-05-05 05:59 | 49.49082 | 3.10890 | 25806 ft | 451 kts | 206° |
| 2026-05-05 05:59 | 49.46356 | 3.08548 | 25967 ft | 451 kts | 212° |
| 2026-05-05 06:00 | 49.43733 | 3.05890 | 26146 ft | 451 kts | 214° |
| 2026-05-05 06:00 | 49.41167 | 3.03178 | 26328 ft | 451 kts | 214° |
| 2026-05-05 06:00 | 49.38559 | 3.00450 | 26504 ft | 451 kts | 214° |
| 2026-05-05 06:00 | 49.35963 | 2.97789 | 26669 ft | 451 kts | 213° |
| 2026-05-05 06:01 | 49.33320 | 2.95110 | 26820 ft | 451 kts | 213° |
| 2026-05-05 06:01 | 49.30712 | 2.92478 | 26967 ft | 451 kts | 213° |
| 2026-05-05 06:01 | 49.28066 | 2.89808 | 27113 ft | 450 kts | 213° |
| 2026-05-05 06:01 | 49.25459 | 2.87182 | 27258 ft | 450 kts | 213° |
| 2026-05-05 06:02 | 49.22865 | 2.84577 | 27404 ft | 450 kts | 213° |
| 2026-05-05 06:02 | 49.20224 | 2.81915 | 27561 ft | 449 kts | 213° |
| 2026-05-05 06:02 | 49.17630 | 2.79302 | 27710 ft | 448 kts | 213° |
| 2026-05-05 06:02 | 49.15045 | 2.76696 | 27851 ft | 447 kts | 213° |
| 2026-05-05 06:03 | 49.12446 | 2.74084 | 27991 ft | 446 kts | 213° |
| 2026-05-05 06:03 | 49.09837 | 2.71466 | 28136 ft | 446 kts | 213° |
| 2026-05-05 06:03 | 49.07243 | 2.68870 | 28279 ft | 445 kts | 212° |
| 2026-05-05 06:03 | 49.04641 | 2.66283 | 28420 ft | 443 kts | 212° |
| 2026-05-05 06:04 | 49.02070 | 2.63712 | 28556 ft | 441 kts | 212° |
| 2026-05-05 06:04 | 48.99495 | 2.61138 | 28692 ft | 440 kts | 212° |
| 2026-05-05 06:04 | 48.96945 | 2.58602 | 28824 ft | 438 kts | 212° |
| 2026-05-05 06:04 | 48.94413 | 2.56103 | 28952 ft | 437 kts | 212° |
| 2026-05-05 06:05 | 48.91840 | 2.53564 | 29084 ft | 435 kts | 212° |
| 2026-05-05 06:05 | 48.89419 | 2.51177 | 29210 ft | 434 kts | 212° |
| 2026-05-05 06:05 | 48.86895 | 2.48676 | 29348 ft | 432 kts | 212° |
| 2026-05-05 06:05 | 48.84398 | 2.46210 | 29484 ft | 431 kts | 212° |
| 2026-05-05 06:06 | 48.81886 | 2.43727 | 29625 ft | 429 kts | 212° |
| 2026-05-05 06:06 | 48.79373 | 2.41241 | 29770 ft | 427 kts | 212° |
| 2026-05-05 06:06 | 48.76868 | 2.38770 | 29928 ft | 425 kts | 212° |
| 2026-05-05 06:06 | 48.74389 | 2.36329 | 30094 ft | 423 kts | 211° |
| 2026-05-05 06:07 | 48.71972 | 2.33954 | 30258 ft | 421 kts | 210° |
| 2026-05-05 06:07 | 48.69509 | 2.31538 | 30422 ft | 418 kts | 210° |
| 2026-05-05 06:07 | 48.67081 | 2.29155 | 30578 ft | 416 kts | 210° |
| 2026-05-05 06:07 | 48.64654 | 2.26770 | 30734 ft | 414 kts | 210° |
| 2026-05-05 06:08 | 48.62266 | 2.24427 | 30889 ft | 411 kts | 210° |
| 2026-05-05 06:08 | 48.59861 | 2.22074 | 31040 ft | 408 kts | 210° |
| 2026-05-05 06:08 | 48.57458 | 2.19807 | 31181 ft | 403 kts | 205° |
| 2026-05-05 06:08 | 48.54851 | 2.18324 | 31339 ft | 396 kts | 193° |
| 2026-05-05 06:09 | 48.52177 | 2.17458 | 31484 ft | 392 kts | 189° |
| 2026-05-05 06:09 | 48.49478 | 2.16703 | 31626 ft | 390 kts | 189° |
| 2026-05-05 06:09 | 48.46846 | 2.15930 | 31762 ft | 387 kts | 190° |
| 2026-05-05 06:09 | 48.44184 | 2.15095 | 31899 ft | 383 kts | 191° |
| 2026-05-05 06:10 | 48.41586 | 2.14254 | 32034 ft | 379 kts | 191° |
| 2026-05-05 06:10 | 48.39028 | 2.13425 | 32164 ft | 375 kts | 191° |
| 2026-05-05 06:10 | 48.36478 | 2.12601 | 32294 ft | 371 kts | 191° |
| 2026-05-05 06:10 | 48.33953 | 2.11787 | 32426 ft | 367 kts | 191° |
| 2026-05-05 06:11 | 48.31480 | 2.10990 | 32552 ft | 362 kts | 190° |
| 2026-05-05 06:11 | 48.28997 | 2.10253 | 32677 ft | 356 kts | 185° |
| 2026-05-05 06:11 | 48.26552 | 2.10280 | 32823 ft | 349 kts | 174° |
| 2026-05-05 06:11 | 48.24155 | 2.10772 | 32948 ft | 344 kts | 171° |
| 2026-05-05 06:12 | 48.21819 | 2.11326 | 33070 ft | 339 kts | 172° |
| 2026-05-05 06:12 | 48.19504 | 2.11848 | 33188 ft | 334 kts | 172° |
| 2026-05-05 06:12 | 48.14903 | 2.12823 | 33501 ft | 320 kts | 172° |
| 2026-05-05 06:13 | 48.10416 | 2.13493 | 32953 ft | 338 kts | 176° |
| 2026-05-05 06:13 | 48.08039 | 2.13667 | 32659 ft | 345 kts | 177° |
| 2026-05-05 06:13 | 48.05656 | 2.13750 | 32815 ft | 338 kts | 179° |
| 2026-05-05 06:14 | 48.03312 | 2.13796 | 32945 ft | 331 kts | 178° |
| 2026-05-05 06:14 | 48.01057 | 2.13878 | 33337 ft | 315 kts | 178° |
| 2026-05-05 06:14 | 47.98834 | 2.13980 | 32950 ft | 328 kts | 177° |
| 2026-05-05 06:14 | 47.96543 | 2.14112 | 32994 ft | 319 kts | 177° |
| 2026-05-05 06:15 | 47.94447 | 2.14258 | 33194 ft | 311 kts | 176° |
| 2026-05-05 06:15 | 47.92159 | 2.14436 | 32500 ft | 326 kts | 177° |
| 2026-05-05 06:15 | 47.90026 | 2.14559 | 32934 ft | 306 kts | 176° |
| 2026-05-05 06:15 | 47.87821 | 2.14733 | 32027 ft | 339 kts | 176° |
| 2026-05-05 06:16 | 47.85356 | 2.15000 | 30621 ft | 374 kts | 175° |
| 2026-05-05 06:16 | 47.82884 | 2.15133 | 31365 ft | 335 kts | 178° |
| 2026-05-05 06:16 | 47.80655 | 2.15181 | 31699 ft | 317 kts | 178° |
| 2026-05-05 06:16 | 47.78436 | 2.15258 | 31310 ft | 327 kts | 178° |
| 2026-05-05 06:17 | 47.76081 | 2.15378 | 30649 ft | 338 kts | 178° |
| 2026-05-05 06:17 | 47.73941 | 2.15481 | 31940 ft | 284 kts | 177° |
| 2026-05-05 06:17 | 47.71937 | 2.15567 | 31069 ft | 325 kts | 178° |
| 2026-05-05 06:17 | 47.69510 | 2.15598 | 29123 ft | 386 kts | 180° |
| 2026-05-05 06:18 | 47.66914 | 2.15680 | 29612 ft | 345 kts | 176° |
| 2026-05-05 06:18 | 47.64578 | 2.15897 | 29792 ft | 328 kts | 176° |
| 2026-05-05 06:18 | 47.62398 | 2.16092 | 29933 ft | 317 kts | 176° |
| 2026-05-05 06:18 | 47.60184 | 2.16252 | 29709 ft | 318 kts | 177° |
| 2026-05-05 06:19 | 47.57966 | 2.16393 | 29604 ft | 316 kts | 177° |
| 2026-05-05 06:19 | 47.55793 | 2.16526 | 29658 ft | 312 kts | 177° |
| 2026-05-05 06:19 | 47.51476 | 2.16782 | 29770 ft | 309 kts | 177° |
| 2026-05-05 06:20 | 47.47161 | 2.17022 | 29783 ft | 310 kts | 177° |
| 2026-05-05 06:20 | 47.42852 | 2.17269 | 29768 ft | 310 kts | 177° |
| 2026-05-05 06:21 | 47.38509 | 2.17525 | 29749 ft | 310 kts | 177° |
| 2026-05-05 06:21 | 47.34216 | 2.17764 | 29729 ft | 307 kts | 177° |
| 2026-05-05 06:22 | 47.29949 | 2.17982 | 29668 ft | 306 kts | 177° |
| 2026-05-05 06:22 | 47.27736 | 2.18104 | 28905 ft | 337 kts | 177° |
| 2026-05-05 06:22 | 47.25325 | 2.18273 | 28505 ft | 348 kts | 176° |
| 2026-05-05 06:23 | 47.22968 | 2.18432 | 29042 ft | 326 kts | 177° |
| 2026-05-05 06:23 | 47.20776 | 2.18557 | 29345 ft | 311 kts | 177° |
| 2026-05-05 06:23 | 47.18655 | 2.18671 | 29474 ft | 301 kts | 177° |
| 2026-05-05 06:23 | 47.16550 | 2.18777 | 29316 ft | 303 kts | 177° |
| 2026-05-05 06:24 | 47.14388 | 2.18852 | 28892 ft | 317 kts | 178° |
| 2026-05-05 06:24 | 47.12137 | 2.18866 | 28651 ft | 324 kts | 179° |
| 2026-05-05 06:24 | 47.09963 | 2.18922 | 29122 ft | 300 kts | 178° |
| 2026-05-05 06:24 | 47.07873 | 2.18954 | 28824 ft | 314 kts | 179° |
| 2026-05-05 06:25 | 47.05626 | 2.18855 | 28242 ft | 335 kts | 182° |
| 2026-05-05 06:25 | 47.03305 | 2.18602 | 28409 ft | 323 kts | 184° |
| 2026-05-05 06:25 | 47.01186 | 2.18322 | 28993 ft | 294 kts | 183° |
| 2026-05-05 06:25 | 46.99091 | 2.18081 | 28364 ft | 320 kts | 183° |
| 2026-05-05 06:26 | 46.96780 | 2.17821 | 27719 ft | 340 kts | 183° |
| 2026-05-05 06:26 | 46.94436 | 2.17539 | 27939 ft | 328 kts | 184° |
| 2026-05-05 06:26 | 46.92276 | 2.17239 | 28579 ft | 300 kts | 184° |
| 2026-05-05 06:26 | 46.90217 | 2.16903 | 28601 ft | 299 kts | 185° |
| 2026-05-05 06:27 | 46.88263 | 2.16522 | 28045 ft | 321 kts | 187° |
| 2026-05-05 06:27 | 46.83834 | 2.15104 | 28163 ft | 319 kts | 193° |
| 2026-05-05 06:27 | 46.81660 | 2.14284 | 27952 ft | 331 kts | 191° |
| 2026-05-05 06:28 | 46.79401 | 2.13498 | 27670 ft | 343 kts | 191° |
| 2026-05-05 06:28 | 46.77063 | 2.12702 | 27717 ft | 341 kts | 191° |
| 2026-05-05 06:28 | 46.74819 | 2.11951 | 28046 ft | 323 kts | 185° |
| 2026-05-05 06:28 | 46.72627 | 2.12015 | 28127 ft | 315 kts | 169° |
| 2026-05-05 06:29 | 46.70439 | 2.12573 | 28019 ft | 317 kts | 172° |
| 2026-05-05 06:29 | 46.65959 | 2.12659 | 28053 ft | 320 kts | 182° |
| 2026-05-05 06:30 | 46.61493 | 2.12036 | 28062 ft | 325 kts | 184° |
| 2026-05-05 06:30 | 46.56924 | 2.11291 | 27978 ft | 328 kts | 185° |
| 2026-05-05 06:30 | 46.54657 | 2.10916 | 27959 ft | 329 kts | 185° |
| 2026-05-05 06:31 | 46.52387 | 2.10539 | 27950 ft | 329 kts | 185° |
| 2026-05-05 06:31 | 46.50104 | 2.10158 | 27953 ft | 329 kts | 185° |
| 2026-05-05 06:31 | 46.47819 | 2.09779 | 27955 ft | 329 kts | 185° |
| 2026-05-05 06:31 | 46.45542 | 2.09401 | 27956 ft | 329 kts | 185° |
| 2026-05-05 06:32 | 46.43297 | 2.09029 | 27956 ft | 329 kts | 185° |
| 2026-05-05 06:32 | 46.41016 | 2.08650 | 27962 ft | 329 kts | 185° |
| 2026-05-05 06:32 | 46.38742 | 2.08272 | 27966 ft | 329 kts | 185° |
| 2026-05-05 06:32 | 46.36456 | 2.07892 | 27969 ft | 329 kts | 185° |
| 2026-05-05 06:33 | 46.34179 | 2.07515 | 27971 ft | 330 kts | 185° |
| 2026-05-05 06:33 | 46.31874 | 2.07134 | 27970 ft | 330 kts | 185° |
| 2026-05-05 06:33 | 46.29586 | 2.06756 | 27970 ft | 330 kts | 185° |
| 2026-05-05 06:33 | 46.27319 | 2.06382 | 27971 ft | 331 kts | 185° |
| 2026-05-05 06:34 | 46.25013 | 2.06002 | 27971 ft | 331 kts | 185° |
| 2026-05-05 06:34 | 46.22719 | 2.05624 | 27972 ft | 331 kts | 185° |
| 2026-05-05 06:34 | 46.20420 | 2.05245 | 27972 ft | 331 kts | 185° |
| 2026-05-05 06:34 | 46.18125 | 2.04867 | 27973 ft | 332 kts | 185° |
| 2026-05-05 06:35 | 46.15835 | 2.04490 | 27974 ft | 332 kts | 185° |
| 2026-05-05 06:35 | 46.13553 | 2.04115 | 27975 ft | 332 kts | 185° |
| 2026-05-05 06:35 | 46.11251 | 2.03737 | 27976 ft | 332 kts | 185° |
| 2026-05-05 06:35 | 46.08935 | 2.03357 | 27977 ft | 332 kts | 185° |
| 2026-05-05 06:36 | 46.06632 | 2.02869 | 27979 ft | 333 kts | 188° |
| 2026-05-05 06:36 | 46.04382 | 2.02203 | 27980 ft | 334 kts | 189° |
| 2026-05-05 06:36 | 46.02100 | 2.01503 | 27980 ft | 334 kts | 189° |
| 2026-05-05 06:36 | 45.99788 | 2.00815 | 27981 ft | 334 kts | 189° |
| 2026-05-05 06:37 | 45.97527 | 2.00158 | 27982 ft | 334 kts | 189° |
| 2026-05-05 06:37 | 45.95236 | 1.99499 | 27983 ft | 334 kts | 189° |
| 2026-05-05 06:37 | 45.92960 | 1.98846 | 27984 ft | 334 kts | 189° |
| 2026-05-05 06:37 | 45.90662 | 1.98187 | 27986 ft | 334 kts | 189° |
| 2026-05-05 06:38 | 45.88723 | 1.97632 | 27994 ft | 334 kts | 189° |
| 2026-05-05 06:38 | 45.84171 | 1.96330 | 28009 ft | 335 kts | 189° |
| 2026-05-05 06:39 | 45.79565 | 1.95014 | 28014 ft | 336 kts | 189° |
| 2026-05-05 06:39 | 45.74966 | 1.93704 | 28018 ft | 337 kts | 189° |
| 2026-05-05 06:40 | 45.70325 | 1.92385 | 28025 ft | 338 kts | 189° |
| 2026-05-05 06:40 | 45.65700 | 1.91071 | 28028 ft | 339 kts | 189° |
| 2026-05-05 06:41 | 45.61039 | 1.89750 | 28028 ft | 341 kts | 189° |
| 2026-05-05 06:41 | 45.56372 | 1.88430 | 27969 ft | 345 kts | 189° |
| 2026-05-05 06:41 | 45.53963 | 1.87750 | 27778 ft | 359 kts | 189° |
| 2026-05-05 06:42 | 45.51460 | 1.87045 | 27600 ft | 372 kts | 189° |
| 2026-05-05 06:42 | 45.48854 | 1.86310 | 27371 ft | 387 kts | 189° |
| 2026-05-05 06:42 | 45.46173 | 1.85556 | 27143 ft | 401 kts | 189° |
| 2026-05-05 06:42 | 45.43383 | 1.84770 | 26911 ft | 415 kts | 190° |
| 2026-05-05 06:43 | 45.40498 | 1.83959 | 26676 ft | 428 kts | 190° |
| 2026-05-05 06:43 | 45.37508 | 1.83118 | 26415 ft | 438 kts | 190° |
| 2026-05-05 06:43 | 45.34519 | 1.82278 | 26149 ft | 437 kts | 190° |
| 2026-05-05 06:43 | 45.31544 | 1.81442 | 25884 ft | 437 kts | 190° |
| 2026-05-05 06:44 | 45.28540 | 1.80601 | 25616 ft | 438 kts | 190° |
| 2026-05-05 06:44 | 45.25538 | 1.79760 | 25344 ft | 435 kts | 190° |
| 2026-05-05 06:44 | 45.22578 | 1.78933 | 25074 ft | 433 kts | 191° |
| 2026-05-05 06:44 | 45.19608 | 1.78104 | 24800 ft | 433 kts | 191° |
| 2026-05-05 06:45 | 45.16650 | 1.77278 | 24531 ft | 430 kts | 191° |
| 2026-05-05 06:45 | 45.13687 | 1.76453 | 24258 ft | 428 kts | 191° |
| 2026-05-05 06:45 | 45.10784 | 1.75644 | 23989 ft | 427 kts | 191° |
| 2026-05-05 06:45 | 45.07848 | 1.74827 | 23716 ft | 425 kts | 191° |
| 2026-05-05 06:46 | 45.04937 | 1.74018 | 23443 ft | 423 kts | 191° |
| 2026-05-05 06:46 | 45.02021 | 1.73208 | 23173 ft | 422 kts | 191° |
| 2026-05-05 06:46 | 44.99144 | 1.72411 | 22902 ft | 421 kts | 191° |
| 2026-05-05 06:46 | 44.96255 | 1.71610 | 22634 ft | 420 kts | 191° |
| 2026-05-05 06:47 | 44.93377 | 1.70815 | 22362 ft | 418 kts | 191° |
| 2026-05-05 06:47 | 44.90516 | 1.70024 | 22091 ft | 417 kts | 191° |
| 2026-05-05 06:47 | 44.87869 | 1.69293 | 21845 ft | 416 kts | 192° |
| 2026-05-05 06:47 | 44.85024 | 1.68508 | 21582 ft | 414 kts | 192° |
| 2026-05-05 06:48 | 44.82206 | 1.67731 | 21320 ft | 413 kts | 192° |
| 2026-05-05 06:48 | 44.79390 | 1.66956 | 21059 ft | 412 kts | 192° |
| 2026-05-05 06:48 | 44.76558 | 1.66177 | 20794 ft | 410 kts | 192° |
| 2026-05-05 06:48 | 44.73757 | 1.65407 | 20532 ft | 408 kts | 192° |
| 2026-05-05 06:49 | 44.70975 | 1.64643 | 20272 ft | 407 kts | 192° |
| 2026-05-05 06:49 | 44.68173 | 1.63875 | 20010 ft | 404 kts | 192° |
| 2026-05-05 06:49 | 44.65435 | 1.63125 | 19726 ft | 395 kts | 192° |
| 2026-05-05 06:49 | 44.62773 | 1.62397 | 19439 ft | 383 kts | 192° |
| 2026-05-05 06:50 | 44.60186 | 1.61690 | 19103 ft | 372 kts | 192° |
| 2026-05-05 06:50 | 44.57659 | 1.61000 | 18750 ft | 370 kts | 192° |
| 2026-05-05 06:50 | 44.55043 | 1.60282 | 18395 ft | 389 kts | 192° |
| 2026-05-05 06:50 | 44.52365 | 1.59550 | 18026 ft | 392 kts | 192° |
| 2026-05-05 06:51 | 44.49681 | 1.58819 | 17624 ft | 384 kts | 192° |
| 2026-05-05 06:51 | 44.47070 | 1.58111 | 17231 ft | 374 kts | 192° |
| 2026-05-05 06:51 | 44.44570 | 1.57432 | 16866 ft | 364 kts | 193° |
| 2026-05-05 06:51 | 44.42077 | 1.56756 | 16510 ft | 355 kts | 193° |
| 2026-05-05 06:52 | 44.39638 | 1.56092 | 16185 ft | 367 kts | 193° |
| 2026-05-05 06:52 | 44.37065 | 1.55392 | 15829 ft | 378 kts | 193° |
| 2026-05-05 06:52 | 44.34502 | 1.54697 | 15461 ft | 377 kts | 193° |
| 2026-05-05 06:52 | 44.31891 | 1.53989 | 15110 ft | 377 kts | 193° |
| 2026-05-05 06:53 | 44.29326 | 1.53296 | 14743 ft | 374 kts | 193° |
| 2026-05-05 06:53 | 44.26779 | 1.52609 | 14377 ft | 364 kts | 193° |
| 2026-05-05 06:53 | 44.24336 | 1.51949 | 14031 ft | 353 kts | 193° |
| 2026-05-05 06:53 | 44.21959 | 1.51306 | 13699 ft | 343 kts | 193° |
| 2026-05-05 06:54 | 44.19565 | 1.50655 | 13375 ft | 358 kts | 193° |
| 2026-05-05 06:54 | 44.17098 | 1.49989 | 13034 ft | 367 kts | 193° |
| 2026-05-05 06:54 | 44.14583 | 1.49313 | 12684 ft | 367 kts | 193° |
| 2026-05-05 06:54 | 44.12043 | 1.48632 | 12345 ft | 368 kts | 193° |
| 2026-05-05 06:55 | 44.09552 | 1.47965 | 12143 ft | 359 kts | 193° |
| 2026-05-05 06:55 | 44.07129 | 1.47314 | 11890 ft | 346 kts | 193° |
| 2026-05-05 06:55 | 44.04805 | 1.46693 | 11622 ft | 334 kts | 193° |
| 2026-05-05 06:55 | 44.02548 | 1.46089 | 11360 ft | 323 kts | 193° |
| 2026-05-05 06:56 | 44.00353 | 1.45501 | 11117 ft | 312 kts | 193° |
| 2026-05-05 06:56 | 43.98226 | 1.45141 | 10870 ft | 303 kts | 183° |
| 2026-05-05 06:56 | 43.96147 | 1.45288 | 10659 ft | 294 kts | 178° |
| 2026-05-05 06:56 | 43.94128 | 1.45570 | 10411 ft | 286 kts | 177° |
| 2026-05-05 06:57 | 43.92113 | 1.45875 | 9846 ft | 291 kts | 176° |
| 2026-05-05 06:57 | 43.90126 | 1.46180 | 9464 ft | 288 kts | 176° |
| 2026-05-05 06:57 | 43.88557 | 1.46420 | 9169 ft | 286 kts | 176° |
| 2026-05-05 06:57 | 43.86497 | 1.47095 | 8803 ft | 283 kts | 160° |
| 2026-05-05 06:58 | 43.84727 | 1.48213 | 8509 ft | 279 kts | 157° |
| 2026-05-05 06:58 | 43.82978 | 1.49384 | 8231 ft | 273 kts | 157° |
| 2026-05-05 06:58 | 43.81270 | 1.50530 | 7954 ft | 268 kts | 156° |
| 2026-05-05 06:58 | 43.79605 | 1.51650 | 7690 ft | 263 kts | 157° |
| 2026-05-05 06:59 | 43.77953 | 1.52752 | 7447 ft | 275 kts | 157° |
| 2026-05-05 06:59 | 43.76137 | 1.53950 | 7199 ft | 292 kts | 157° |
| 2026-05-05 06:59 | 43.74287 | 1.55170 | 7064 ft | 286 kts | 157° |
| 2026-05-05 06:59 | 43.72519 | 1.56291 | 6920 ft | 274 kts | 160° |
| 2026-05-05 07:00 | 43.70786 | 1.57271 | 6775 ft | 264 kts | 161° |
| 2026-05-05 07:00 | 43.69081 | 1.58225 | 6632 ft | 253 kts | 161° |
| 2026-05-05 07:00 | 43.67460 | 1.59133 | 6291 ft | 253 kts | 161° |
| 2026-05-05 07:00 | 43.65821 | 1.60047 | 5939 ft | 252 kts | 161° |
| 2026-05-05 07:01 | 43.64200 | 1.60951 | 5690 ft | 247 kts | 161° |
| 2026-05-05 07:01 | 43.62604 | 1.61848 | 5429 ft | 243 kts | 161° |
| 2026-05-05 07:01 | 43.61059 | 1.62717 | 5170 ft | 239 kts | 161° |
| 2026-05-05 07:01 | 43.59510 | 1.63589 | 4916 ft | 239 kts | 161° |
| 2026-05-05 07:02 | 43.57938 | 1.64470 | 4670 ft | 245 kts | 161° |
| 2026-05-05 07:02 | 43.56345 | 1.65358 | 4415 ft | 243 kts | 161° |
| 2026-05-05 07:02 | 43.54793 | 1.66216 | 4160 ft | 240 kts | 161° |
| 2026-05-05 07:02 | 43.53244 | 1.67063 | 3907 ft | 239 kts | 161° |
| 2026-05-05 07:03 | 43.51667 | 1.67914 | 3657 ft | 241 kts | 161° |
| 2026-05-05 07:03 | 43.50110 | 1.68744 | 3459 ft | 238 kts | 161° |
| 2026-05-05 07:03 | 43.48558 | 1.69556 | 3244 ft | 236 kts | 164° |
| 2026-05-05 07:03 | 43.46990 | 1.69579 | 3203 ft | 224 kts | 204° |
| 2026-05-05 07:04 | 43.45793 | 1.68256 | 3201 ft | 225 kts | 238° |
| 2026-05-05 07:04 | 43.45145 | 1.66296 | 3138 ft | 219 kts | 257° |
| 2026-05-05 07:04 | 43.45085 | 1.64263 | 3115 ft | 214 kts | 281° |
| 2026-05-05 07:04 | 43.45426 | 1.62258 | 3139 ft | 219 kts | 283° |
| 2026-05-05 07:05 | 43.45755 | 1.60212 | 3083 ft | 210 kts | 282° |
| 2026-05-05 07:05 | 43.46041 | 1.58323 | 3028 ft | 192 kts | 281° |
| 2026-05-05 07:05 | 43.46298 | 1.56569 | 2986 ft | 185 kts | 281° |
| 2026-05-05 07:05 | 43.46556 | 1.54800 | 2998 ft | 192 kts | 281° |
| 2026-05-05 07:06 | 43.47098 | 1.53152 | 2986 ft | 189 kts | 308° |
| 2026-05-05 07:06 | 43.48054 | 1.51822 | 3002 ft | 195 kts | 317° |
| 2026-05-05 07:06 | 43.49071 | 1.50619 | 2978 ft | 186 kts | 320° |
| 2026-05-05 07:06 | 43.50083 | 1.49490 | 3026 ft | 186 kts | 321° |
| 2026-05-05 07:07 | 43.51094 | 1.48404 | 2982 ft | 178 kts | 321° |
| 2026-05-05 07:07 | 43.52049 | 1.47416 | 2985 ft | 171 kts | 323° |
| 2026-05-05 07:07 | 43.53019 | 1.46406 | 2755 ft | 173 kts | 322° |
| 2026-05-05 07:07 | 43.53945 | 1.45448 | 2495 ft | 159 kts | 322° |
| 2026-05-05 07:08 | 43.54797 | 1.44560 | 2257 ft | 144 kts | 322° |
| 2026-05-05 07:08 | 43.55592 | 1.43740 | 2080 ft | 144 kts | 322° |
| 2026-05-05 07:08 | 43.56410 | 1.42892 | 1892 ft | 149 kts | 322° |
| 2026-05-05 07:08 | 43.57227 | 1.42047 | 1688 ft | 148 kts | 322° |
| 2026-05-05 07:09 | 43.58053 | 1.41193 | 1484 ft | 148 kts | 322° |
| 2026-05-05 07:09 | 43.58875 | 1.40334 | 1281 ft | 150 kts | 322° |
| 2026-05-05 07:09 | 43.59719 | 1.39472 | 1094 ft | 152 kts | 322° |
| 2026-05-05 07:09 | 43.60573 | 1.38606 | 894 ft | 155 kts | 322° |
| 2026-05-05 07:10 | 43.61437 | 1.37693 | 675 ft | 160 kts | 320° |
| 2026-05-05 07:10 | 43.62340 | 1.36756 | 520 ft | 159 kts | 321° |
| 2026-05-05 07:10 | 43.63102 | 1.35958 | 503 ft | 103 kts | 323° |
| 2026-05-05 07:10 | 43.63481 | 1.35564 | 501 ft | 40 kts | 336° |
| 2026-05-05 07:11 | 43.63639 | 1.35623 | 501 ft | 24 kts | 49° |
| 2026-05-05 07:11 | 43.63747 | 1.35810 | 500 ft | 25 kts | 53° |
| 2026-05-05 07:11 | 43.63778 | 1.36021 | 499 ft | 25 kts | 132° |
| 2026-05-05 07:11 | 43.63643 | 1.36169 | 500 ft | 24 kts | 144° |
| 2026-05-05 07:12 | 43.63500 | 1.36314 | 501 ft | 25 kts | 147° |
| 2026-05-05 07:12 | 43.63358 | 1.36465 | 501 ft | 26 kts | 143° |
| 2026-05-05 07:12 | 43.63211 | 1.36622 | 501 ft | 27 kts | 144° |
| 2026-05-05 07:12 | 43.63058 | 1.36783 | 501 ft | 27 kts | 141° |
| 2026-05-05 07:13 | 43.62903 | 1.36950 | 502 ft | 28 kts | 145° |
| 2026-05-05 07:13 | 43.62737 | 1.37110 | 502 ft | 29 kts | 147° |
| 2026-05-05 07:13 | 43.62574 | 1.37276 | 504 ft | 29 kts | 142° |
| 2026-05-05 07:13 | 43.62466 | 1.37394 | 505 ft | 7 kts | 143° |
| 2026-05-05 07:14 | 43.62457 | 1.37458 | 505 ft | 7 kts | 76° |
| 2026-05-05 07:14 | 43.62493 | 1.37473 | 505 ft | 2 kts | 337° |
| 2026-05-05 07:14 | 43.62508 | 1.37464 | 504 ft | 2 kts | 329° |
| 2026-05-05 07:14 | 43.62522 | 1.37451 | 504 ft | 2 kts | 325° |
| 2026-05-05 07:15 | 43.62525 | 1.37448 | 504 ft | 0 kts | 325° |